Time;durP1;ratioP1;P1;durP2;ratioP2;P2;SDS_P1;SDS_P2;PMS_P1;PMS_P2;Temp;Humidity;BMP_temperature;BMP_pressure;BME280_temperature;BME280_humidity;BME280_pressure;Samples;Min_cycle;Max_cycle;Signal;HPM_P1;HPM_P2
2021/04/05 00:00:24;;;;;;;17.23;12.53;;;;;;;4.17;96.67;94683.34;5076199;28;20428;-77
2021/04/05 00:02:51;;;;;;;14.60;11.43;;;;;;;4.08;96.92;94684.75;5040966;28;20432;-78
2021/04/05 00:05:19;;;;;;;19.50;12.10;;;;;;;4.09;97.51;94689.03;5076693;28;20448;-77
2021/04/05 00:07:47;;;;;;;13.33;11.37;;;;;;;4.05;97.15;94690.16;5076449;28;20436;-78
2021/04/05 00:10:15;;;;;;;17.13;11.37;;;;;;;4.01;96.47;94686.06;5076646;28;20452;-78
2021/04/05 00:12:43;;;;;;;17.60;13.50;;;;;;;3.99;96.33;94704.31;5076299;28;20479;-77
2021/04/05 00:15:11;;;;;;;19.10;13.90;;;;;;;4.03;97.11;94692.81;5076242;28;20444;-78
2021/04/05 00:17:38;;;;;;;15.80;12.80;;;;;;;4.08;96.94;94694.31;5041227;28;20452;-77
2021/04/05 00:20:07;;;;;;;18.50;11.93;;;;;;;4.14;96.78;94686.97;5076383;28;20463;-77
2021/04/05 00:22:34;;;;;;;18.10;13.20;;;;;;;4.15;96.41;94686.03;5075382;28;20463;-78
2021/04/05 00:25:01;;;;;;;16.43;11.77;;;;;;;4.16;96.14;94698.09;5076429;28;20753;-77
2021/04/05 00:27:28;;;;;;;15.70;12.23;;;;;;;4.15;95.92;94691.22;5076321;28;20440;-77
2021/04/05 00:29:55;;;;;;;18.00;11.93;;;;;;;3.98;95.15;94689.69;5075646;28;20440;-77
2021/04/05 00:32:22;;;;;;;19.70;15.17;;;;;;;4.01;95.14;94699.88;5040482;28;20483;-78
2021/04/05 00:34:48;;;;;;;18.60;12.90;;;;;;;4.01;95.01;94691.25;5076359;28;20436;-78
2021/04/05 00:37:14;;;;;;;15.00;12.00;;;;;;;3.95;95.73;94689.03;5075328;28;20488;-78
2021/04/05 00:39:41;;;;;;;17.60;12.20;;;;;;;3.98;95.45;94699.22;5075886;28;20458;-77
2021/04/05 00:42:08;;;;;;;15.90;11.57;;;;;;;3.95;95.60;94702.84;5075982;28;20451;-78
2021/04/05 00:44:35;;;;;;;17.10;12.20;;;;;;;3.98;94.61;94691.44;5075690;28;20433;-77
2021/04/05 00:47:03;;;;;;;17.87;11.83;;;;;;;4.04;94.50;94699.66;5075613;28;20449;-78
2021/04/05 00:49:29;;;;;;;18.10;13.60;;;;;;;4.08;94.66;94695.16;5073352;28;20971;-78
2021/04/05 00:51:56;;;;;;;15.47;11.43;;;;;;;4.02;93.50;94690.31;5076087;28;20479;-77
2021/04/05 00:54:22;;;;;;;17.20;12.80;;;;;;;4.06;93.92;94690.97;5075425;28;20455;-77
2021/04/05 00:56:49;;;;;;;18.20;12.90;;;;;;;4.03;94.14;94695.41;5075304;28;20982;-77
2021/04/05 00:59:15;;;;;;;16.27;10.93;;;;;;;4.07;93.87;94695.25;5075379;28;20444;-77
2021/04/05 01:01:42;;;;;;;17.67;12.63;;;;;;;4.12;93.75;94695.78;5075650;28;20475;-77
2021/04/05 01:04:09;;;;;;;16.40;12.27;;;;;;;4.17;93.18;94704.13;5075784;28;20802;-77
2021/04/05 01:06:36;;;;;;;16.57;13.30;;;;;;;4.18;93.54;94696.22;5075425;28;20501;-77
2021/04/05 01:09:05;;;;;;;17.13;11.33;;;;;;;4.30;93.07;94700.63;5075255;28;20932;-78
2021/04/05 01:11:32;;;;;;;15.27;12.17;;;;;;;4.35;92.06;94701.19;5075458;28;20532;-77
2021/04/05 01:13:59;;;;;;;19.13;13.20;;;;;;;4.26;91.81;94690.53;5040201;28;20436;-77
2021/04/05 01:16:27;;;;;;;15.13;12.48;;;;;;;4.36;91.48;94699.44;5075343;28;20563;-78
2021/04/05 01:18:54;;;;;;;16.90;11.73;;;;;;;4.44;91.14;94698.94;5075672;28;20202;-78
2021/04/05 01:21:21;;;;;;;17.40;12.23;;;;;;;4.39;91.65;94696.63;5075320;28;20467;-78
2021/04/05 01:23:49;;;;;;;17.07;11.53;;;;;;;4.28;90.59;94697.31;5074984;28;20459;-78
2021/04/05 01:26:15;;;;;;;14.93;10.73;;;;;;;4.21;90.73;94703.81;5075006;28;20436;-78
2021/04/05 01:28:42;;;;;;;16.30;12.30;;;;;;;4.21;90.27;94696.03;5075253;28;20451;-77
2021/04/05 01:31:08;;;;;;;18.63;13.17;;;;;;;4.23;90.93;94699.34;5074778;28;20464;-78
2021/04/05 01:33:36;;;;;;;15.50;12.20;;;;;;;4.29;89.91;94704.16;5074790;28;20502;-77
2021/04/05 01:36:05;;;;;;;17.77;12.77;;;;;;;4.32;91.26;94703.13;5074624;28;20448;-78
2021/04/05 01:38:33;;;;;;;18.93;14.33;;;;;;;4.23;91.22;94706.31;5055806;28;20474;-78
2021/04/05 01:41:03;;;;;;;16.17;12.27;;;;;;;4.32;90.48;94708.31;5074366;28;21045;-78
2021/04/05 01:43:29;;;;;;;17.20;11.83;;;;;;;4.39;91.09;94714.00;5074615;28;20475;-78
2021/04/05 01:45:57;;;;;;;17.70;11.53;;;;;;;4.40;90.87;94715.66;5074617;28;20450;-78
2021/04/05 01:48:26;;;;;;;15.13;12.10;;;;;;;4.42;90.41;94712.03;5074829;28;20448;-77
2021/04/05 01:50:57;;;;;;;18.47;12.63;;;;;;;4.44;89.59;94711.94;5074603;28;20453;-78
2021/04/05 01:53:23;;;;;;;19.93;13.30;;;;;;;4.44;90.19;94715.34;5074389;28;20456;-78
2021/04/05 01:55:50;;;;;;;15.63;11.80;;;;;;;4.39;89.32;94707.03;4990287;28;20443;-77
2021/04/05 01:58:18;;;;;;;13.70;11.13;;;;;;;4.40;90.33;94703.50;5074202;28;20913;-77
2021/04/05 02:00:45;;;;;;;16.20;12.40;;;;;;;4.33;89.91;94707.38;5072113;28;20449;-78
2021/04/05 02:03:12;;;;;;;17.47;12.30;;;;;;;4.31;90.30;94707.50;5074118;28;20440;-77
2021/04/05 02:05:44;;;;;;;22.53;13.97;;;;;;;4.33;90.31;94705.63;5074140;28;20920;-78
2021/04/05 02:08:10;;;;;;;18.13;12.10;;;;;;;4.37;89.48;94706.28;5074578;28;20429;-78
2021/04/05 02:10:37;;;;;;;15.63;11.90;;;;;;;4.30;89.01;94699.81;5074454;28;20462;-77
2021/04/05 02:13:04;;;;;;;14.20;12.00;;;;;;;4.34;89.59;94706.50;5074468;28;20444;-77
2021/04/05 02:15:34;;;;;;;18.30;13.10;;;;;;;4.37;90.17;94711.50;5073700;28;20440;-77
2021/04/05 02:18:01;;;;;;;19.37;13.00;;;;;;;4.28;88.33;94707.69;5073824;28;20528;-78
2021/04/05 02:20:30;;;;;;;14.10;11.50;;;;;;;4.33;88.57;94705.63;5073764;28;20493;-78
2021/04/05 02:22:58;;;;;;;14.90;11.97;;;;;;;4.45;89.06;94713.59;5038593;28;20452;-77
2021/04/05 02:25:26;;;;;;;15.93;12.60;;;;;;;4.40;88.47;94710.47;5073384;28;20444;-78
2021/04/05 02:27:53;;;;;;;15.57;11.47;;;;;;;4.46;89.03;94712.66;5073610;28;20436;-77
2021/04/05 02:30:25;;;;;;;16.60;12.70;;;;;;;4.47;88.30;94711.72;5074043;28;20451;-78
2021/04/05 02:32:55;;;;;;;19.13;12.13;;;;;;;4.35;88.10;94709.00;5074034;28;20545;-77
2021/04/05 02:35:23;;;;;;;16.53;12.67;;;;;;;4.36;88.10;94709.81;5073535;28;20812;-78
2021/04/05 02:37:50;;;;;;;16.47;11.90;;;;;;;4.30;87.25;94702.41;5038030;28;20475;-78
2021/04/05 02:40:17;;;;;;;15.97;10.63;;;;;;;4.29;87.81;94701.56;5073889;28;20429;-77
2021/04/05 02:42:44;;;;;;;20.57;13.93;;;;;;;4.29;88.10;94708.53;5073472;28;20460;-77
2021/04/05 02:45:13;;;;;;;23.20;15.63;;;;;;;4.25;87.49;94707.06;5073294;28;20848;-78
2021/04/05 02:47:39;;;;;;;16.57;12.23;;;;;;;4.27;87.07;94708.63;5073490;28;20955;-78
2021/04/05 02:50:08;;;;;;;22.60;12.97;;;;;;;4.25;86.20;94707.06;5074271;28;20477;-77
2021/04/05 02:52:36;;;;;;;19.50;13.20;;;;;;;4.29;85.83;94714.53;5073390;28;20494;-77
2021/04/05 02:55:05;;;;;;;16.00;12.80;;;;;;;4.32;87.41;94714.34;5073555;28;20456;-77
2021/04/05 02:57:34;;;;;;;19.00;12.50;;;;;;;4.28;87.04;94706.84;5073761;28;20514;-78
2021/04/05 03:00:00;;;;;;;18.67;12.87;;;;;;;4.30;85.61;94708.41;5073806;28;20472;-77
2021/04/05 03:02:27;;;;;;;17.77;12.40;;;;;;;4.28;86.41;94714.66;5073558;28;20486;-77
2021/04/05 03:04:54;;;;;;;19.43;13.03;;;;;;;4.24;85.88;94721.81;5073596;28;20452;-77
2021/04/05 03:07:23;;;;;;;19.03;13.23;;;;;;;4.20;86.64;94720.34;5073178;28;20893;-78
2021/04/05 03:09:50;;;;;;;22.33;14.53;;;;;;;4.17;86.16;94722.28;5073676;28;20444;-77
2021/04/05 03:12:17;;;;;;;22.17;14.50;;;;;;;4.11;87.65;94720.09;5073757;28;20468;-77
2021/04/05 03:14:44;;;;;;;17.87;13.13;;;;;;;4.12;87.24;94717.38;5073060;28;20448;-78
2021/04/05 03:17:10;;;;;;;17.00;12.43;;;;;;;4.08;88.40;94721.09;5073516;28;20435;-78
2021/04/05 03:19:40;;;;;;;19.47;13.90;;;;;;;4.11;87.99;94726.09;5037891;28;20940;-78
2021/04/05 03:22:07;;;;;;;17.80;12.77;;;;;;;4.02;88.14;94717.09;5073333;28;20444;-78
2021/04/05 03:24:36;;;;;;;18.00;14.10;;;;;;;3.99;87.53;94727.69;5073166;28;20912;-77
2021/04/05 03:27:04;;;;;;;21.83;15.30;;;;;;;4.00;88.52;94734.53;5073575;28;20439;-77
2021/04/05 03:29:34;;;;;;;18.03;13.33;;;;;;;4.01;87.18;94725.00;5073442;28;20444;-77
2021/04/05 03:32:02;;;;;;;18.83;14.47;;;;;;;3.96;87.22;94724.44;5073058;28;20514;-77
2021/04/05 03:34:32;;;;;;;16.83;14.20;;;;;;;4.01;87.48;94727.59;5037835;28;20830;-77
2021/04/05 03:37:03;;;;;;;24.10;14.03;;;;;;;4.07;88.07;94724.63;5073258;28;20483;-77
2021/04/05 03:39:30;;;;;;;20.30;13.80;;;;;;;4.03;86.96;94733.50;5073056;28;20444;-77
2021/04/05 03:42:02;;;;;;;22.90;14.00;;;;;;;4.08;87.27;94730.66;5072630;28;20473;-77
2021/04/05 03:44:37;;;;;;;18.57;13.53;;;;;;;4.03;88.47;94730.91;5073173;28;20432;-77
2021/04/05 03:47:12;;;;;;;20.90;13.87;;;;;;;4.05;88.00;94736.88;5073041;28;20440;-78
2021/04/05 03:49:43;;;;;;;17.70;13.50;;;;;;;4.11;88.27;94739.09;5073237;28;20779;-77
2021/04/05 03:52:18;;;;;;;24.83;14.87;;;;;;;4.06;87.10;94741.16;5054342;28;20480;-78
2021/04/05 03:54:49;;;;;;;19.40;13.43;;;;;;;4.04;88.07;94725.63;5053961;28;20439;-77
2021/04/05 03:57:20;;;;;;;19.57;14.30;;;;;;;4.09;87.02;94722.78;5073601;28;20486;-77
2021/04/05 03:59:50;;;;;;;19.40;14.83;;;;;;;4.18;86.51;94729.97;5076916;28;20447;-77
2021/04/05 04:02:20;;;;;;;17.77;13.53;;;;;;;4.27;86.34;94734.59;5076783;28;20777;-77
2021/04/05 04:04:56;;;;;;;17.27;12.90;;;;;;;4.32;86.38;94731.69;5076451;28;20460;-77
2021/04/05 04:07:28;;;;;;;16.50;12.57;;;;;;;4.31;85.26;94728.28;5076900;28;20451;-77
2021/04/05 04:09:56;;;;;;;18.90;12.63;;;;;;;4.35;84.62;94731.53;5076227;28;20459;-77
2021/04/05 04:12:25;;;;;;;14.90;11.30;;;;;;;4.35;84.10;94727.19;5076493;28;20524;-77
2021/04/05 04:14:53;;;;;;;17.87;13.20;;;;;;;4.45;83.81;94739.56;5076267;28;20436;-77
2021/04/05 04:17:21;;;;;;;20.57;13.70;;;;;;;4.45;83.42;94740.41;5076371;28;20489;-77
2021/04/05 04:19:48;;;;;;;16.60;12.67;;;;;;;4.51;82.53;94734.81;5075777;28;20445;-77
2021/04/05 04:22:15;;;;;;;18.47;12.80;;;;;;;4.57;83.07;94743.97;5076207;28;20432;-77
2021/04/05 04:24:42;;;;;;;21.90;17.20;;;;;;;4.65;81.94;94742.56;5075743;28;20441;-77
2021/04/05 04:27:08;;;;;;;16.17;13.03;;;;;;;4.71;81.30;94740.50;5076216;28;20444;-78
2021/04/05 04:29:35;;;;;;;22.47;14.83;;;;;;;5.05;87.75;94732.19;5075826;28;20448;-78
2021/04/05 04:32:02;;;;;;;20.77;13.23;;;;;;;5.02;80.34;94741.94;5040970;28;20479;-77
2021/04/05 04:34:29;;;;;;;18.40;12.63;;;;;;;4.90;78.03;94741.78;5076040;28;20433;-78
2021/04/05 04:37:02;;;;;;;23.10;14.60;;;;;;;4.86;78.89;94742.94;5075683;28;20477;-78
2021/04/05 04:39:29;;;;;;;19.77;14.07;;;;;;;4.95;83.39;94737.16;5075910;28;20445;-75
2021/04/05 04:41:56;;;;;;;19.53;14.50;;;;;;;4.89;77.87;94745.34;5056565;28;20436;-76
2021/04/05 04:44:22;;;;;;;19.03;13.30;;;;;;;4.84;77.58;94742.19;5075993;28;20441;-76
2021/04/05 04:46:49;;;;;;;18.93;13.93;;;;;;;4.78;78.25;94750.41;5075314;28;20448;-76
2021/04/05 04:49:16;;;;;;;21.30;15.17;;;;;;;4.78;77.65;94746.97;5075447;28;20441;-77
2021/04/05 04:51:42;;;;;;;22.97;14.63;;;;;;;4.68;77.49;94751.94;5075140;28;20488;-76
2021/04/05 04:54:10;;;;;;;26.53;15.87;;;;;;;4.66;76.96;94749.44;5075238;28;20793;-76
2021/04/05 04:56:37;;;;;;;26.20;16.93;;;;;;;4.64;77.89;94750.47;5075133;28;20502;-76
2021/04/05 04:59:05;;;;;;;21.80;16.20;;;;;;;4.72;78.39;94752.56;5075086;28;20531;-75
2021/04/05 05:01:33;;;;;;;21.17;14.10;;;;;;;4.60;77.46;94757.59;5039958;28;20452;-78
2021/04/05 05:04:04;;;;;;;23.50;15.70;;;;;;;4.59;76.85;94761.13;5075561;28;20444;-76
2021/04/05 05:06:33;;;;;;;27.23;16.20;;;;;;;4.69;78.16;94764.00;5074574;28;20460;-76
2021/04/05 05:09:00;;;;;;;22.53;14.30;;;;;;;4.81;78.22;94767.56;5074376;28;20454;-76
2021/04/05 05:11:27;;;;;;;25.97;18.17;;;;;;;4.82;78.59;94767.47;5074502;28;21022;-76
2021/04/05 05:13:55;;;;;;;23.77;16.03;;;;;;;4.85;77.66;94766.44;5074706;28;20471;-75
2021/04/05 05:16:22;;;;;;;26.13;16.40;;;;;;;4.93;78.30;94772.00;5074867;28;20455;-77
2021/04/05 05:18:51;;;;;;;22.57;14.97;;;;;;;4.97;77.04;94773.47;5074695;28;20849;-78
2021/04/05 05:21:25;;;;;;;29.77;17.80;;;;;;;5.09;77.14;94785.66;5076070;28;20452;-80
2021/04/05 05:23:54;;;;;;;25.77;17.23;;;;;;;5.20;77.04;94790.13;5075363;28;20432;-81
2021/04/05 05:26:22;;;;;;;27.90;17.27;;;;;;;5.22;76.76;94794.34;5074548;28;20432;-79
2021/04/05 05:28:52;;;;;;;24.40;15.70;;;;;;;5.25;76.21;94788.09;5074664;28;20433;-79
2021/04/05 05:31:20;;;;;;;23.23;16.03;;;;;;;5.28;75.63;94787.91;5074642;28;20480;-78
2021/04/05 05:33:46;;;;;;;29.87;17.70;;;;;;;5.33;77.03;94782.38;5075033;28;20486;-79
2021/04/05 05:36:15;;;;;;;25.73;16.63;;;;;;;5.34;77.20;94787.47;5074577;28;20429;-79
2021/04/05 05:38:42;;;;;;;27.13;16.43;;;;;;;5.36;76.56;94784.78;5074854;28;20879;-79
2021/04/05 05:41:16;;;;;;;25.37;17.80;;;;;;;5.26;76.05;94794.97;5074938;28;20440;-77
2021/04/05 05:43:48;;;;;;;31.57;18.97;;;;;;;5.21;75.77;94797.88;5074353;28;20811;-79
2021/04/05 05:46:23;;;;;;;26.40;17.40;;;;;;;5.26;76.48;94792.38;5074861;28;20498;-78
2021/04/05 05:49:26;;;;;;;30.50;18.07;;;;;;;5.33;76.17;94796.22;5074271;28;20444;-77
2021/04/05 05:52:03;;;;;;;28.93;18.43;;;;;;;5.23;76.14;94796.00;5012289;28;20598;-78
2021/04/05 05:54:46;;;;;;;27.77;17.80;;;;;;;5.19;76.55;94794.50;5012353;28;20896;-78
2021/04/05 05:57:17;;;;;;;26.60;18.40;;;;;;;5.25;75.91;94793.31;5012433;28;20442;-78
2021/04/05 05:59:47;;;;;;;28.73;18.97;;;;;;;5.26;76.11;94802.78;5012245;28;20447;-78
2021/04/05 06:02:29;;;;;;;28.40;17.10;;;;;;;5.34;76.80;94802.25;5012376;28;20451;-78
2021/04/05 06:05:05;;;;;;;26.20;19.20;;;;;;;5.53;76.32;94803.56;5010540;28;20449;-78
2021/04/05 06:07:41;;;;;;;31.17;19.10;;;;;;;5.77;75.98;94801.06;5012368;28;20455;-78
2021/04/05 06:10:24;;;;;;;27.37;18.23;;;;;;;5.84;74.41;94809.31;5012968;28;20443;-80
2021/04/05 06:13:05;;;;;;;25.03;15.57;;;;;;;6.01;74.37;94811.63;5012331;28;20502;-80
2021/04/05 06:15:43;;;;;;;26.13;18.33;;;;;;;6.43;74.80;94814.81;5012194;28;20505;-80
2021/04/05 06:18:23;;;;;;;29.77;17.10;;;;;;;6.93;72.57;94807.78;5012225;28;20439;-80
2021/04/05 06:20:57;;;;;;;25.40;17.30;;;;;;;7.30;70.16;94811.19;5011168;28;20442;-80
2021/04/05 06:23:38;;;;;;;27.97;17.80;;;;;;;7.46;70.31;94817.75;5012335;28;20432;-80
2021/04/05 06:26:17;;;;;;;22.30;16.43;;;;;;;7.59;70.21;94809.88;5012621;28;20451;-80
2021/04/05 06:28:54;;;;;;;24.33;16.07;;;;;;;7.28;68.76;94821.75;5073749;28;20761;-80
2021/04/05 06:31:33;;;;;;;22.97;15.67;;;;;;;7.15;70.10;94818.34;5039118;28;20547;-79
2021/04/05 06:34:10;;;;;;;24.87;16.77;;;;;;;7.36;70.27;94824.63;5073477;28;20452;-80
2021/04/05 06:36:44;;;;;;;21.33;15.13;;;;;;;7.76;68.29;94822.47;5073303;28;20452;-80
2021/04/05 06:39:19;;;;;;;24.90;16.70;;;;;;;8.16;67.72;94826.50;5073303;28;20437;-81
2021/04/05 06:42:24;;;;;;;21.77;14.07;;;;;;;8.59;67.46;94835.31;5073853;28;20478;-81
2021/04/05 06:45:25;;;;;;;24.43;14.53;;;;;;;9.21;65.57;94831.31;5012460;28;20798;-79
2021/04/05 06:48:44;;;;;;;21.60;14.70;;;;;;;9.61;61.44;94836.78;4953214;29;20454;-80
2021/04/05 06:51:28;;;;;;;21.43;15.67;;;;;;;9.81;60.48;94835.94;4953790;29;20830;-80
2021/04/05 06:54:14;;;;;;;27.13;16.63;;;;;;;10.38;62.31;94834.69;4953082;29;20515;-80
2021/04/05 06:57:02;;;;;;;22.50;15.27;;;;;;;10.64;58.43;94839.50;4953808;29;20472;-80
2021/04/05 06:59:41;;;;;;;23.60;14.93;;;;;;;10.27;57.70;94828.69;4953006;29;20457;-81
2021/04/05 07:02:48;;;;;;;23.70;17.23;;;;;;;10.13;58.36;94835.09;4953246;29;20537;-81
2021/04/05 07:05:29;;;;;;;24.63;15.73;;;;;;;9.60;60.48;94822.03;4896542;29;20494;-81
2021/04/05 07:08:10;;;;;;;21.60;15.90;;;;;;;10.10;59.52;94836.16;4895663;29;20454;-80
2021/04/05 07:10:41;;;;;;;20.83;13.70;;;;;;;10.06;57.43;94837.38;4895444;29;20451;-80
2021/04/05 07:13:19;;;;;;;20.70;13.47;;;;;;;9.69;59.06;94836.97;4894895;29;20927;-80
2021/04/05 07:15:53;;;;;;;20.70;14.03;;;;;;;9.76;60.62;94832.06;4864333;29;20943;-80
2021/04/05 07:18:34;;;;;;;19.00;13.90;;;;;;;10.19;59.59;94837.19;4895348;29;20462;-81
2021/04/05 07:21:18;;;;;;;18.37;14.13;;;;;;;10.59;58.55;94842.53;4906432;29;20512;-80
2021/04/05 07:23:59;;;;;;;22.80;15.13;;;;;;;10.62;55.93;94842.25;4952954;29;20481;-80
2021/04/05 07:26:35;;;;;;;24.40;15.47;;;;;;;10.51;58.17;94842.38;5011297;28;20524;-80
2021/04/05 07:29:03;;;;;;;25.30;14.87;;;;;;;10.39;56.61;94840.75;5011308;28;20453;-79
2021/04/05 07:31:39;;;;;;;28.47;17.53;;;;;;;10.19;58.54;94843.28;5011637;28;20489;-79
2021/04/05 07:34:27;;;;;;;23.77;15.63;;;;;;;10.34;57.81;94842.94;4966153;28;20451;-80
2021/04/05 07:37:05;;;;;;;19.60;13.90;;;;;;;10.74;57.62;94840.41;5014579;28;20477;-79
2021/04/05 07:39:34;;;;;;;24.43;15.40;;;;;;;10.46;56.63;94847.19;5015543;28;20452;-79
2021/04/05 07:42:10;;;;;;;18.93;13.93;;;;;;;10.52;57.41;94836.16;5045434;28;20464;-80
2021/04/05 07:44:55;;;;;;;20.80;15.60;;;;;;;10.21;59.13;94846.63;5038592;28;20428;-79
2021/04/05 07:47:33;;;;;;;24.57;16.10;;;;;;;10.01;58.14;94851.81;5056398;28;20943;-79
2021/04/05 07:50:06;;;;;;;21.30;16.33;;;;;;;9.89;58.12;94851.06;5056638;28;20435;-78
2021/04/05 07:52:38;;;;;;;22.37;15.00;;;;;;;9.67;58.99;94854.63;5057371;28;20475;-79
2021/04/05 07:55:07;;;;;;;25.37;15.70;;;;;;;9.53;59.02;94857.50;5056602;28;20447;-79
2021/04/05 07:57:44;;;;;;;22.67;14.80;;;;;;;9.84;60.85;94856.69;5056124;28;20504;-79
2021/04/05 08:00:16;;;;;;;23.20;16.03;;;;;;;9.90;59.60;94850.94;5052199;28;20443;-79
2021/04/05 08:03:01;;;;;;;25.07;17.27;;;;;;;9.58;58.94;94852.75;5076731;28;20443;-79
2021/04/05 08:05:38;;;;;;;20.90;15.30;;;;;;;9.27;61.00;94852.63;5076336;28;20442;-79
2021/04/05 08:08:25;;;;;;;32.40;16.27;;;;;;;9.03;61.51;94853.72;5076537;28;20435;-78
2021/04/05 08:11:03;;;;;;;28.20;15.53;;;;;;;8.69;62.94;94859.84;5043493;28;20959;-79
2021/04/05 08:13:38;;;;;;;21.20;13.97;;;;;;;8.48;63.27;94855.44;5075853;28;20847;-79
2021/04/05 08:16:14;;;;;;;22.33;15.80;;;;;;;8.35;65.48;94861.59;5076153;28;20437;-80
2021/04/05 08:18:51;;;;;;;20.80;15.37;;;;;;;8.14;64.52;94865.00;5075856;28;20445;-80
2021/04/05 08:21:22;;;;;;;20.67;15.03;;;;;;;7.99;64.29;94862.56;5076301;28;20437;-80
2021/04/05 08:27:25;;;;;;;21.73;13.57;;;;;;;7.63;64.80;94867.91;5075811;28;20809;-79
2021/04/05 08:30:00;;;;;;;19.00;13.50;;;;;;;7.73;64.22;94866.28;5057465;28;20445;-78
2021/04/05 08:32:37;;;;;;;20.47;12.90;;;;;;;7.84;65.19;94860.28;5040709;28;21004;-79
2021/04/05 08:35:14;;;;;;;25.93;16.77;;;;;;;7.98;66.29;94855.69;5042677;28;20451;-80
2021/04/05 08:37:51;;;;;;;16.97;12.77;;;;;;;8.20;65.86;94861.91;5076137;28;20489;-79
2021/04/05 08:40:23;;;;;;;28.60;15.07;;;;;;;8.43;64.75;94857.56;5076136;28;20445;-79
2021/04/05 08:42:58;;;;;;;18.80;13.40;;;;;;;8.57;63.68;94857.31;5075301;28;20935;-79
2021/04/05 08:45:33;;;;;;;20.33;13.90;;;;;;;8.74;63.66;94862.09;5075344;28;20466;-80
2021/04/05 08:48:05;;;;;;;22.43;14.27;;;;;;;8.87;62.93;94854.94;5075340;28;20445;-79
2021/04/05 08:50:38;;;;;;;25.43;14.70;;;;;;;9.11;62.89;94857.41;5075630;28;20473;-80
2021/04/05 08:53:05;;;;;;;21.60;14.20;;;;;;;9.46;62.28;94861.59;5075486;28;20474;-79
2021/04/05 08:55:33;;;;;;;20.10;13.33;;;;;;;9.80;60.07;94854.44;5075476;28;20449;-80
2021/04/05 08:58:07;;;;;;;21.93;14.63;;;;;;;9.80;59.53;94838.69;5075123;28;20442;-79
2021/04/05 09:00:37;;;;;;;16.40;12.67;;;;;;;9.95;58.79;94845.31;5041546;28;20900;-79
2021/04/05 09:03:10;;;;;;;21.63;12.37;;;;;;;10.01;59.72;94847.41;5075337;28;20570;-80
2021/04/05 09:05:42;;;;;;;17.93;13.20;;;;;;;10.18;58.61;94851.25;5075271;28;20439;-77
2021/04/05 09:08:09;;;;;;;16.17;11.53;;;;;;;9.72;54.44;94846.38;5078518;28;20462;-79
2021/04/05 09:10:45;;;;;;;11.60;10.00;;;;;;;9.73;53.57;94853.28;5075039;28;20442;-80
2021/04/05 09:13:18;;;;;;;17.83;11.93;;;;;;;9.52;55.37;94846.19;5075481;28;20494;-79
2021/04/05 09:16:31;;;;;;;18.57;12.30;;;;;;;9.50;57.72;94847.28;5074847;28;20923;-79
2021/04/05 09:19:37;;;;;;;16.03;11.87;;;;;;;9.62;58.51;94846.31;5075261;28;20845;-79
2021/04/05 09:22:30;;;;;;;21.40;14.40;;;;;;;9.71;59.14;94842.91;5074881;28;20806;-79
2021/04/05 09:25:25;;;;;;;16.17;11.80;;;;;;;9.78;58.57;94838.81;5075121;28;20455;-78
2021/04/05 09:28:16;;;;;;;17.87;12.80;;;;;;;9.93;58.51;94834.94;5075094;28;20449;-79
2021/04/05 09:31:15;;;;;;;14.90;11.10;;;;;;;10.02;57.54;94833.34;5074772;28;20471;-79
2021/04/05 09:34:11;;;;;;;15.80;11.50;;;;;;;10.19;56.81;94835.41;5072077;28;20490;-79
2021/04/05 09:36:50;;;;;;;18.47;12.70;;;;;;;11.78;66.41;94827.59;5012749;28;20450;-78
2021/04/05 09:39:30;;;;;;;15.87;11.87;;;;;;;11.76;52.54;94826.88;5012705;28;20443;-78
2021/04/05 09:42:35;;;;;;;17.53;12.13;;;;;;;11.34;53.91;94817.63;5012626;28;20447;-77
2021/04/05 09:45:15;;;;;;;15.77;12.03;;;;;;;11.02;53.28;94823.09;5012541;28;20900;-77
2021/04/05 09:48:12;;;;;;;17.33;10.80;;;;;;;10.75;54.00;94816.66;4996342;28;20457;-76
2021/04/05 09:51:00;;;;;;;15.03;10.00;;;;;;;10.53;54.45;94809.78;5012511;28;20468;-77
2021/04/05 09:53:39;;;;;;;14.60;10.23;;;;;;;10.11;55.02;94806.34;5012380;28;20483;-76
2021/04/05 09:56:07;;;;;;;13.93;10.80;;;;;;;10.04;55.08;94799.13;5011452;28;20776;-77
2021/04/05 09:58:38;;;;;;;16.73;12.50;;;;;;;9.92;56.01;94801.00;5012466;28;20505;-78
2021/04/05 10:01:09;;;;;;;14.13;11.10;;;;;;;10.20;56.02;94802.16;4975793;28;20437;-77
2021/04/05 10:03:42;;;;;;;13.90;10.13;;;;;;;10.26;56.37;94782.47;4992471;28;20521;-77
2021/04/05 10:06:12;;;;;;;16.10;10.83;;;;;;;10.28;55.68;94773.50;4998918;28;20444;-77
2021/04/05 10:08:39;;;;;;;13.27;11.73;;;;;;;10.31;55.66;94761.91;5012132;28;20451;-77
2021/04/05 10:11:06;;;;;;;24.80;13.60;;;;;;;10.26;56.24;94764.94;5012519;28;20511;-77
2021/04/05 10:13:34;;;;;;;13.97;10.53;;;;;;;10.20;54.96;94758.44;5047234;28;20492;-78
2021/04/05 10:16:04;;;;;;;18.60;10.77;;;;;;;10.21;55.38;94761.88;5074289;28;20537;-78
2021/04/05 10:18:33;;;;;;;15.53;11.30;;;;;;;10.24;55.55;94764.25;5074210;28;20493;-80
2021/04/05 10:21:00;;;;;;;11.97;9.40;;;;;;;10.15;54.65;94749.28;5074337;28;20451;-81
2021/04/05 10:23:31;;;;;;;14.87;10.77;;;;;;;10.20;55.64;94747.94;5073739;28;20455;-81
2021/04/05 10:26:00;;;;;;;21.83;11.70;;;;;;;10.24;55.27;94743.25;5074162;28;20447;-80
2021/04/05 10:28:31;;;;;;;16.40;11.93;;;;;;;10.48;56.95;94735.91;5038949;28;20454;-80
2021/04/05 10:31:01;;;;;;;13.40;10.33;;;;;;;10.69;56.41;94742.84;5074113;28;20445;-79
2021/04/05 10:33:32;;;;;;;14.90;11.17;;;;;;;10.66;54.24;94741.31;5073338;28;20991;-80
2021/04/05 10:36:02;;;;;;;14.33;10.33;;;;;;;10.61;54.42;94738.28;5074067;28;20440;-81
2021/04/05 10:38:29;;;;;;;14.77;10.30;;;;;;;10.68;55.09;94730.69;5038092;28;20473;-81
2021/04/05 10:40:56;;;;;;;15.80;11.13;;;;;;;10.72;54.35;94724.22;5073339;28;20511;-81
2021/04/05 10:43:27;;;;;;;14.30;9.90;;;;;;;10.82;51.92;94727.69;5073606;28;20480;-81
2021/04/05 10:45:58;;;;;;;12.47;9.60;;;;;;;10.91;55.21;94721.63;5073043;28;20441;-79
2021/04/05 10:48:37;;;;;;;14.50;10.67;;;;;;;10.93;54.50;94719.69;5073498;28;20439;-79
2021/04/05 10:51:07;;;;;;;11.97;9.43;;;;;;;10.74;53.64;94722.31;5073311;28;20440;-79
2021/04/05 10:53:37;;;;;;;11.90;9.90;;;;;;;10.87;54.41;94715.00;5054586;28;20471;-80
2021/04/05 10:56:07;;;;;;;10.97;8.87;;;;;;;10.98;52.05;94712.22;5073381;28;20448;-79
2021/04/05 10:58:42;;;;;;;11.47;9.67;;;;;;;10.90;51.85;94712.09;5073832;28;20440;-79
2021/04/05 11:01:11;;;;;;;11.77;10.47;;;;;;;10.83;52.04;94711.81;5053506;28;20425;-80
2021/04/05 11:03:43;;;;;;;11.13;7.87;;;;;;;10.60;52.05;94697.25;5053060;28;20778;-82
2021/04/05 11:06:14;;;;;;;10.23;7.93;;;;;;;10.74;53.46;94694.25;5053239;28;20441;-80
2021/04/05 11:08:41;;;;;;;14.90;9.30;;;;;;;10.94;53.64;94684.59;5057176;28;20936;-80
2021/04/05 11:11:12;;;;;;;13.43;9.90;;;;;;;11.06;54.31;94683.50;5057702;28;20460;-79
2021/04/05 11:13:42;;;;;;;16.93;9.43;;;;;;;11.17;53.39;94688.59;5057086;28;20481;-80
2021/04/05 11:16:10;;;;;;;11.50;9.50;;;;;;;11.31;52.13;94676.03;5057572;28;20782;-80
2021/04/05 11:18:46;;;;;;;15.43;10.00;;;;;;;11.33;52.16;94664.41;5057834;28;20786;-81
2021/04/05 11:21:14;;;;;;;11.20;9.13;;;;;;;11.33;52.25;94655.72;5038880;28;20448;-80
2021/04/05 11:23:41;;;;;;;12.83;9.90;;;;;;;11.27;51.13;94653.63;5057534;28;20483;-80
2021/04/05 11:26:09;;;;;;;17.60;10.93;;;;;;;11.31;52.92;94655.84;5057666;28;20787;-80
2021/04/05 11:28:42;;;;;;;15.20;10.83;;;;;;;11.37;53.50;94650.03;5057159;28;20535;-80
2021/04/05 11:31:11;;;;;;;12.50;9.60;;;;;;;11.25;51.59;94645.88;5057043;28;20457;-81
2021/04/05 11:33:43;;;;;;;12.00;9.20;;;;;;;11.09;52.32;94635.97;5056878;28;20533;-81
2021/04/05 11:36:11;;;;;;;11.90;9.67;;;;;;;11.28;52.11;94639.56;5057172;28;20533;-80
2021/04/05 11:38:43;;;;;;;14.80;9.83;;;;;;;11.46;51.58;94632.59;5057327;28;20474;-81
2021/04/05 11:41:12;;;;;;;13.40;10.67;;;;;;;11.25;49.97;94627.50;5039301;28;20452;-81
2021/04/05 11:43:41;;;;;;;11.50;9.40;;;;;;;11.15;51.77;94624.06;5057627;28;20913;-80
2021/04/05 11:46:10;;;;;;;16.17;11.13;;;;;;;11.24;50.80;94617.97;5021275;28;20800;-80
2021/04/05 11:48:37;;;;;;;15.37;11.10;;;;;;;11.07;52.62;94621.31;5056736;28;20434;-80
2021/04/05 11:51:05;;;;;;;17.10;11.10;;;;;;;11.28;51.81;94610.66;5056805;28;20514;-80